Airfield :
LOGIN :

Register | Disclaimer

   EN    FR    IT 

 










Legend :    VFR   Marginal VFR   IFR   Intensive IFR   Very Intensive IFR
Visi :
Ceiling :
>= 8 km
>= 3000ft
5 to 8 km
1000 to 3000 ft
1500m to 5 km
500 to 1000 ft
800 to 1500m
200 to 500 ft
< 800m
< 200 ft
Symbols :   Thunderstorms  Fog  Heavy snow  Heavy precipitations  Wind > 20 kt
SIGMETs :     Misc.  Thunderstorms  Icing  Turbulence  Mountain Waves  Volcanic Ashes







- Airport Elevation : 102 ft
- IATA code : EXT
- Download approach charts


EGTE - Exeter

CURRENT METAR :
  • 221050Z 25013KT 220V290 9999 FEW049 04/02 Q1004

EXPIRED METARs :
  • 221020Z 18006KT 9999 FEW045 04/02 Q1004
  • 220950Z 07006KT 350V120 9999 FEW045 02/02 Q1004
  • 220920Z VRB03KT 9999 FEW045 02/01 Q1005
  • 220850Z 26005KT 220V300 9999 FEW045 03/01 Q1005
  • 220820Z 29010KT 250V310 9999 FEW040 02/01 Q1005

TAF AMD TAF EGTE
Valid from the 22 at 09:00 until the 22 at 18:00 UTC


220808Z 2209/2218 25008KT 9999 SCT025
PROB30
TEMPO 2209/2212 6000 SHRA BKN008
TEMPO 2212/2218 6000 SHRAGS BKN012
PROB30
TEMPO 2212/2218 3000 SHRASN BKN008
No reported NOTAMs for that airfield.
1 SIGMET reported for the London FIR (EGTT) :
 
Severe turbulence
EGTT SIGMET 01 VALID 221030/221430 EGRR
EGTT LONDON FIR SEV TURB FCST WI N5220 W00530 - N5429 W00530 - N5214 W00410 - N5045 W00342 - N4947 W00604 - N5143 W00639 - N5220 W00530 FL160/400 MOV E 15KT NC=



MET'MAP, your aeronautical weather chart ! - Copyright ORBIFLY December 2007 - Disclaimer

ORBIFLY MET'MAP TEAM :

Programming & Development : Alexandra Zaïnal
Concept & Development : Baudouin d'Aumeries
Co-Development & Prog : Marc-Olivier Méhu
Technical & hardware support : Manuel Goepfert

Contact : metmap@orbifly.com




SOURCES & CREDITS :

   NOAA